Csl Melbourne — 8PWP — position and weather

sailwx.info

Track history (hours):
 
Tides and Currents Weather Stations Pressure Air Temp Water Temp Dewpoint Dewpoint Depression Visibility Wind Speed Wind Dir Waves Ship Positions

Csl Melbourne

Last reported at 2014-Jul-22 03:27 UTC. Time now 2014-Jul-23 01:41 UTC.
Position S 38°04' E 140°09'.

Length 187 m; draft 6.9 m.

Type: Cargo ship. MMSI: 314317000.

Date/timePositionNaut miles runAvg speedWind from/ knotsBaromVisibWave heightAir tempDewpointWater temp
2014-Jul-22 03:27S 38°04' E 140°09'1112.8
2014-Jul-22 02:34S 38°10' E 140°21'1212.3
2014-Jul-22 01:33S 38°17' E 140°34'1412.2
2014-Jul-22 00:23S 38°25' E 140°50'1112.3
2014-Jul-21 23:31S 38°30' E 141°01'2512.6
2014-Jul-21 21:33S 38°39' E 141°31'1412.8
2014-Jul-21 20:27S 38°44' E 141°48'213.0
2014-Jul-21 20:18S 38°44' E 141°51'1013.3
2014-Jul-21 19:33S 38°47' E 142°03'1312.8
2014-Jul-21 18:31S 38°51' E 142°19'1413.1
2014-Jul-21 17:29S 38°56' E 142°35'13613.1
2014-Jul-21 07:05S 39°12' E 145°29'712.7
2014-Jul-21 06:33S 39°12' E 145°38'1312.8
2014-Jul-21 05:33S 39°12' E 145°54'1313.1
2014-Jul-21 04:33S 39°12' E 146°11'1413.3
2014-Jul-21 03:32S 39°10' E 146°28'1313.5
2014-Jul-21 02:33S 39°06' E 146°45'1313.2
2014-Jul-21 01:33S 39°02' E 147°01'1312.7
2014-Jul-21 00:33S 38°58' E 147°16'12613.4
2014-Jul-20 15:10S 37°59' E 149°39'813.0
2014-Jul-20 14:31S 37°54' E 149°47'1513.3
2014-Jul-20 13:22S 37°45' E 150°03'2512.0
2014-Jul-20 11:18S 37°23' E 150°19'  
2014-Jul-15 14:13S 37°18' E 150°18'16411.2
2014-Jul-14 23:31S 39°16' E 147°53'1110.8
2014-Jul-14 22:33S 39°23' E 147°43'1211.7
2014-Jul-14 21:33S 39°31' E 147°31'1312.6
2014-Jul-14 20:30S 39°39' E 147°18'1312.9
2014-Jul-14 19:31S 39°47' E 147°05'1312.8
2014-Jul-14 18:32S 39°55' E 146°52'87 8.5
2014-Jul-14 08:13S 40°50' E 145°23'0 0.0
2014-Jul-14 07:28S 40°50' E 145°23'0 0.0
2014-Jul-14 00:07S 40°50' E 145°23'0 0.0
2014-Jul-13 23:10S 40°50' E 145°23'0 0.0
2014-Jul-13 22:31S 40°50' E 145°23'0 0.0
2014-Jul-13 21:31S 40°50' E 145°23'0 0.0
2014-Jul-13 07:28S 40°50' E 145°23'0 0.0
2014-Jul-12 21:31S 40°50' E 145°23'4 0.3
2014-Jul-12 07:27S 40°46' E 145°24'  
Track history (hours):
 
Tides and Currents Weather Stations Pressure Air Temp Water Temp Dewpoint Dewpoint Depression Visibility Wind Speed Wind Dir Waves Ship Positions

Csl Melbourne

Last reported at 2014-Jul-22 03:27 UTC. Time now 2014-Jul-23 01:41 UTC.
Position S 38°04' E 140°09'.

Length 187 m; draft 6.9 m.

Type: Cargo ship. MMSI: 314317000.

Date/timePositionNaut miles runAvg speedWind from/ knotsBaromVisibWave heightAir tempDewpointWater temp
2014-Jul-22 03:27S 38°04' E 140°09'1112.8
2014-Jul-22 02:34S 38°10' E 140°21'1212.3
2014-Jul-22 01:33S 38°17' E 140°34'1412.2
2014-Jul-22 00:23S 38°25' E 140°50'1112.3
2014-Jul-21 23:31S 38°30' E 141°01'2512.6
2014-Jul-21 21:33S 38°39' E 141°31'1412.8
2014-Jul-21 20:27S 38°44' E 141°48'213.0
2014-Jul-21 20:18S 38°44' E 141°51'1013.3
2014-Jul-21 19:33S 38°47' E 142°03'1312.8
2014-Jul-21 18:31S 38°51' E 142°19'1413.1
2014-Jul-21 17:29S 38°56' E 142°35'13613.1
2014-Jul-21 07:05S 39°12' E 145°29'712.7
2014-Jul-21 06:33S 39°12' E 145°38'1312.8
2014-Jul-21 05:33S 39°12' E 145°54'1313.1
2014-Jul-21 04:33S 39°12' E 146°11'1413.3
2014-Jul-21 03:32S 39°10' E 146°28'1313.5
2014-Jul-21 02:33S 39°06' E 146°45'1313.2
2014-Jul-21 01:33S 39°02' E 147°01'1312.7
2014-Jul-21 00:33S 38°58' E 147°16'12613.4
2014-Jul-20 15:10S 37°59' E 149°39'813.0
2014-Jul-20 14:31S 37°54' E 149°47'1513.3
2014-Jul-20 13:22S 37°45' E 150°03'2512.0
2014-Jul-20 11:18S 37°23' E 150°19'  
2014-Jul-15 14:13S 37°18' E 150°18'16411.2
2014-Jul-14 23:31S 39°16' E 147°53'1110.8
2014-Jul-14 22:33S 39°23' E 147°43'1211.7
2014-Jul-14 21:33S 39°31' E 147°31'1312.6
2014-Jul-14 20:30S 39°39' E 147°18'1312.9
2014-Jul-14 19:31S 39°47' E 147°05'1312.8
2014-Jul-14 18:32S 39°55' E 146°52'87 8.5
2014-Jul-14 08:13S 40°50' E 145°23'0 0.0
2014-Jul-14 07:28S 40°50' E 145°23'0 0.0
2014-Jul-14 00:07S 40°50' E 145°23'0 0.0
2014-Jul-13 23:10S 40°50' E 145°23'0 0.0
2014-Jul-13 22:31S 40°50' E 145°23'0 0.0
2014-Jul-13 21:31S 40°50' E 145°23'0 0.0
2014-Jul-13 07:28S 40°50' E 145°23'0 0.0
2014-Jul-12 21:31S 40°50' E 145°23'4 0.3
2014-Jul-12 07:27S 40°46' E 145°24'  

Dump ship's entire track history